»·PEaware :: DAL169 KSFO-KSAN

DAL169 :: KSFO-KSAN

FLIGHT INFORMATION

Flight Status: Arrived
Operator:
Delta Air Lines
More flights by this operator :: More flights under this callsign
Pilot: Richard S. (14671)
Aircraft: BOEING 737-800
(B738)
More flights by this aircraft type
Origin: KSFO San Francisco Intl
United States
Destination: KSAN San Diego Intl-Lindbergh
United States
More flights between these airports :: More routes between these airports
Route: +SSTIK4 CISKO FLW LAX COMIX2
File this flight plan on PilotEdge
Remarks:
Altitude:
(Current/Filed)
37,000ft
Speed:
(Current/Filed)
429kts
Departed: 07-Oct-18 05:54 PM
Arrived: 07-Oct-18 07:15 PM
Distance/Time
Traveled:
388nm/1:21
Distance/Time
To Go:
Arrived

Flight Plot

Page will automatically refresh every two minutes.

Flight plan parsing failed; only flown route is shown


Map Options




Map Legend


Flown Route
Filed Route
Departure Airport
Arrival Airport
Navaid (VOR, NDB)
Fix

Horizontal Profiles

Position Reports

Time Latitude Longitude Heading Altitude Ground
Speed
07-Oct-18 17:36 37.616737 -122.381716 22 31ft 0kts
07-Oct-18 17:37 37.616737 -122.381716 22 31ft 0kts
07-Oct-18 17:38 37.616737 -122.381716 22 31ft 0kts
07-Oct-18 17:39 37.616737 -122.381716 22 31ft 0kts
07-Oct-18 17:40 37.616737 -122.381716 22 31ft 0kts
07-Oct-18 17:41 37.616737 -122.381716 22 31ft 0kts
07-Oct-18 17:42 37.616737 -122.381716 22 31ft 0kts
07-Oct-18 17:43 37.616737 -122.381716 22 31ft 0kts
07-Oct-18 17:44 37.616737 -122.381716 22 31ft 0kts
07-Oct-18 17:45 37.616268 -122.382028 57 31ft 2kts
07-Oct-18 17:46 37.616272 -122.382533 118 31ft 0kts
07-Oct-18 17:47 37.616272 -122.382533 117 31ft 0kts
07-Oct-18 17:48 37.616262 -122.382510 117 31ft 1kts
07-Oct-18 17:49 37.615745 -122.381249 118 31ft 0kts
07-Oct-18 17:50 37.615745 -122.381249 118 31ft 0kts
07-Oct-18 17:51 37.615047 -122.380726 194 31ft 15kts
07-Oct-18 17:52 37.611163 -122.383248 207 31ft 26kts
07-Oct-18 17:53 37.608640 -122.384304 120 31ft 8kts
07-Oct-18 17:54 37.608496 -122.383948 116 31ft 0kts
07-Oct-18 17:55 37.608247 -122.383223 101 30ft 17kts
07-Oct-18 17:56 37.634484 -122.364501 31 1289ft 188kts
07-Oct-18 17:57 37.665585 -122.397517 248 3130ft 235kts
07-Oct-18 17:58 37.608306 -122.432695 196 5919ft 267kts
07-Oct-18 17:59 37.541158 -122.456491 196 9097ft 281kts
07-Oct-18 18:00 37.467265 -122.446161 147 11597ft 313kts
07-Oct-18 18:01 37.408606 -122.376967 135 14264ft 327kts
07-Oct-18 18:02 37.348487 -122.304150 136 16742ft 340kts
07-Oct-18 18:03 37.286371 -122.229416 136 19008ft 352kts
07-Oct-18 18:04 37.220548 -122.150423 136 21147ft 364kts
07-Oct-18 18:05 37.151888 -122.068234 136 23115ft 376kts
07-Oct-18 18:06 37.080717 -121.983261 136 24923ft 387kts
07-Oct-18 18:07 37.007511 -121.896094 136 26579ft 397kts
07-Oct-18 18:08 36.933380 -121.808068 136 28082ft 407kts
07-Oct-18 18:09 36.859756 -121.720883 136 29455ft 415kts
07-Oct-18 18:10 36.782234 -121.629337 136 31135ft 413kts
07-Oct-18 18:11 36.706924 -121.540656 136 32676ft 411kts
07-Oct-18 18:12 36.631800 -121.452442 136 34085ft 408kts
07-Oct-18 18:13 36.556362 -121.364110 136 35388ft 406kts
07-Oct-18 18:14 36.480149 -121.275127 137 36569ft 404kts
07-Oct-18 18:15 36.405026 -121.187670 137 37261ft 414kts
07-Oct-18 18:16 36.324110 -121.101229 140 37275ft 439kts
07-Oct-18 18:17 36.236702 -121.011913 140 37265ft 448kts
07-Oct-18 18:18 36.146150 -120.921022 141 37259ft 447kts
07-Oct-18 18:19 36.055438 -120.828467 141 37261ft 447kts
07-Oct-18 18:20 35.966187 -120.737738 141 37257ft 447kts
07-Oct-18 18:21 35.886304 -120.656806 141 37260ft 447kts
07-Oct-18 18:22 35.797335 -120.566942 141 37261ft 447kts
07-Oct-18 18:23 35.707283 -120.476268 141 37261ft 447kts
07-Oct-18 18:24 35.615728 -120.387870 147 37194ft 448kts
07-Oct-18 18:25 35.530687 -120.300654 139 37263ft 447kts
07-Oct-18 18:26 35.440883 -120.212146 141 37260ft 447kts
07-Oct-18 18:27 35.350416 -120.122394 141 37260ft 447kts
07-Oct-18 18:28 35.263796 -120.036433 141 37260ft 447kts
07-Oct-18 18:29 35.174867 -119.948112 141 37260ft 447kts
07-Oct-18 18:30 35.085354 -119.859009 140 37258ft 447kts
07-Oct-18 18:31 35.005589 -119.757638 136 37270ft 448kts
07-Oct-18 18:32 34.924952 -119.660026 135 37261ft 447kts
07-Oct-18 18:33 34.845905 -119.562870 135 37260ft 447kts
07-Oct-18 18:34 34.765761 -119.464227 134 37260ft 447kts
07-Oct-18 18:35 34.686419 -119.366473 134 37260ft 447kts
07-Oct-18 18:36 34.612304 -119.275067 135 37260ft 447kts
07-Oct-18 18:37 34.533284 -119.177515 135 37260ft 447kts
07-Oct-18 18:38 34.453954 -119.079479 135 37260ft 447kts
07-Oct-18 18:39 34.371820 -118.977874 134 37260ft 447kts
07-Oct-18 18:40 34.291444 -118.878320 134 37260ft 447kts
07-Oct-18 18:41 34.211977 -118.779369 134 37273ft 433kts
07-Oct-18 18:42 34.133213 -118.681925 134 37260ft 439kts
07-Oct-18 18:43 34.054173 -118.583667 134 37213ft 420kts
07-Oct-18 18:44 33.981372 -118.492663 134 36368ft 413kts
07-Oct-18 18:45 33.907422 -118.400314 132 32855ft 417kts
07-Oct-18 18:46 33.838707 -118.311488 133 29881ft 404kts
07-Oct-18 18:47 33.772009 -118.224698 133 28038ft 366kts
07-Oct-18 18:48 33.712539 -118.146039 133 26469ft 349kts
07-Oct-18 18:49 33.655132 -118.070778 133 24974ft 341kts
07-Oct-18 18:50 33.596493 -117.994013 133 23489ft 332kts
07-Oct-18 18:51 33.539641 -117.920760 136 22080ft 323kts
07-Oct-18 18:52 33.480270 -117.852456 136 20713ft 315kts
07-Oct-18 18:53 33.421640 -117.785875 139 19396ft 307kts
07-Oct-18 18:54 33.362871 -117.723380 138 18115ft 301kts
07-Oct-18 18:55 33.304504 -117.661227 139 16978ft 310kts
07-Oct-18 18:56 33.245489 -117.598445 138 15751ft 299kts
07-Oct-18 18:57 33.188123 -117.538014 138 14564ft 291kts
07-Oct-18 18:58 33.132615 -117.480013 142 13482ft 283kts
07-Oct-18 18:59 33.071510 -117.429642 145 12365ft 277kts
07-Oct-18 19:00 33.012819 -117.380476 145 11353ft 271kts
07-Oct-18 19:01 32.956468 -117.333242 145 10379ft 266kts
07-Oct-18 19:02 32.900582 -117.286533 145 9454ft 261kts
07-Oct-18 19:03 32.845831 -117.241052 145 8547ft 258kts
07-Oct-18 19:04 32.799964 -117.185739 112 7681ft 253kts
07-Oct-18 19:05 32.788745 -117.112430 101 6956ft 231kts
07-Oct-18 19:06 32.773357 -117.049455 115 6374ft 195kts
07-Oct-18 19:07 32.752201 -116.996309 115 6368ft 196kts
07-Oct-18 19:08 32.735488 -116.938502 107 6363ft 196kts
07-Oct-18 19:09 32.720851 -116.880946 107 6363ft 196kts
07-Oct-18 19:10 32.693950 -116.833952 173 6392ft 198kts
07-Oct-18 19:11 32.667973 -116.879321 288 5656ft 234kts
07-Oct-18 19:12 32.679073 -116.951073 274 4912ft 251kts
07-Oct-18 19:13 32.693285 -117.017012 286 4006ft 206kts
07-Oct-18 19:14 32.706339 -117.078126 286 2568ft 207kts
07-Oct-18 19:15 32.720751 -117.137886 287 970ft 182kts
07-Oct-18 19:16 32.731805 -117.182531 286 19ft 123kts
07-Oct-18 19:17 32.734123 -117.195310 256 20ft 0kts
07-Oct-18 19:18 32.734639 -117.198506 286 17ft 17kts
07-Oct-18 19:19 32.733912 -117.200459 260 17ft 0kts

Navigation Log

Ident Type
Flight plan parsing failed, navigation log unavailable